createdAt,value
2023-02-22T00:01:35.575Z,83.64
2023-02-22T00:04:06.828Z,83.74
2023-02-22T00:06:34.429Z,83.88
2023-02-22T00:09:02.017Z,84.01
2023-02-22T00:11:29.616Z,84.27
2023-02-22T00:13:57.484Z,84.17
2023-02-22T00:16:26.688Z,84.24
2023-02-22T00:18:54.486Z,84.20
2023-02-22T00:21:22.337Z,84.03
2023-02-22T00:23:50.222Z,84.15
2023-02-22T00:26:23.052Z,84.14
2023-02-22T00:28:52.612Z,84.01
2023-02-22T00:31:21.170Z,83.95
2023-02-22T00:33:48.848Z,83.78
2023-02-22T00:36:16.423Z,83.61
2023-02-22T00:38:43.990Z,83.53
2023-02-22T00:41:12.466Z,83.46
2023-02-22T00:43:40.071Z,83.59
2023-02-22T00:46:07.717Z,83.54
2023-02-22T00:48:35.466Z,83.68
2023-02-22T00:51:03.056Z,83.75
2023-02-22T00:53:30.659Z,83.73
2023-02-22T00:55:58.266Z,83.76
2023-02-22T00:58:25.827Z,83.72
2023-02-22T01:00:53.431Z,83.85
2023-02-22T01:03:21.470Z,83.86
2023-02-22T01:05:49.188Z,84.05
2023-02-22T01:08:17.369Z,83.98
2023-02-22T01:10:45.218Z,84.02
2023-02-22T01:13:13.768Z,83.85
2023-02-22T01:15:43.192Z,83.95
2023-02-22T01:18:11.946Z,83.99
2023-02-22T01:20:39.573Z,84.28
2023-02-22T01:23:07.171Z,84.52
2023-02-22T01:25:35.860Z,84.40
2023-02-22T01:28:06.361Z,84.69
2023-02-22T01:30:36.122Z,84.73
2023-02-22T01:33:06.060Z,84.88
2023-02-22T01:35:36.792Z,84.84
2023-02-22T01:38:04.467Z,84.90
2023-02-22T01:40:38.092Z,85.08
2023-02-22T01:43:16.366Z,85.01
2023-02-22T01:45:49.383Z,85.20
2023-02-22T01:48:24.161Z,85.38
2023-02-22T01:50:59.776Z,85.73
2023-02-22T01:53:34.006Z,85.78
2023-02-22T01:56:03.172Z,85.73
2023-02-22T01:58:33.547Z,85.88
2023-02-22T02:01:01.312Z,85.94
2023-02-22T02:03:33.098Z,85.96
2023-02-22T02:06:03.133Z,85.94
2023-02-22T02:08:45.227Z,85.98
2023-02-22T02:11:12.920Z,86.24
2023-02-22T02:13:40.632Z,86.34
2023-02-22T02:16:08.312Z,86.69
2023-02-22T02:18:36.085Z,86.92
2023-02-22T02:21:18.954Z,86.94
2023-02-22T02:23:49.488Z,86.82
2023-02-22T02:26:54.506Z,86.84
2023-02-22T02:29:40.685Z,86.63
2023-02-22T02:32:30.799Z,86.85
2023-02-22T02:35:04.059Z,87.15
2023-02-22T02:37:35.437Z,87.34
2023-02-22T02:40:09.177Z,87.33
2023-02-22T02:42:44.455Z,87.18
2023-02-22T02:45:18.611Z,87.16
2023-02-22T02:47:53.602Z,87.38
2023-02-22T02:50:51.191Z,87.62
2023-02-22T02:53:25.746Z,87.75
2023-02-22T02:55:53.508Z,87.86
2023-02-22T02:58:23.427Z,87.94
2023-02-22T03:00:55.177Z,88.11
2023-02-22T03:03:28.560Z,88.29
2023-02-22T03:06:17.786Z,88.18
2023-02-22T03:09:30.251Z,88.28
2023-02-22T03:12:13.150Z,88.38
2023-02-22T03:14:50.896Z,88.51
2023-02-22T03:17:44.538Z,88.81
2023-02-22T03:20:41.428Z,88.78
2023-02-22T03:23:17.485Z,88.71
2023-02-22T03:25:51.768Z,88.78
2023-02-22T03:28:24.249Z,88.76
2023-02-22T03:30:57.937Z,88.86
2023-02-22T03:33:42.700Z,88.84
2023-02-22T03:36:39.068Z,88.88
2023-02-22T03:39:12.761Z,88.83
2023-02-22T03:41:40.609Z,88.97
2023-02-22T03:44:14.513Z,89.05
2023-02-22T03:46:43.649Z,89.14
2023-02-22T03:49:16.986Z,89.16
2023-02-22T03:51:44.616Z,88.87
2023-02-22T03:54:12.478Z,88.94
2023-02-22T03:56:45.543Z,89.12
2023-02-22T03:59:13.339Z,89.18
2023-02-22T04:01:40.980Z,89.32
2023-02-22T04:04:08.643Z,89.42
2023-02-22T04:06:36.485Z,89.42
2023-02-22T04:09:04.233Z,89.57
2023-02-22T04:11:32.005Z,89.80
2023-02-22T04:13:59.674Z,89.69
2023-02-22T04:16:27.318Z,89.51
2023-02-22T04:18:54.891Z,89.61
2023-02-22T04:21:22.548Z,89.79
2023-02-22T04:23:50.526Z,89.55
2023-02-22T04:26:18.496Z,89.39
2023-02-22T04:28:46.115Z,89.71
2023-02-22T04:31:13.841Z,89.79
2023-02-22T04:33:41.523Z,89.68
2023-02-22T04:36:09.780Z,89.43
2023-02-22T04:38:37.462Z,89.32
2023-02-22T04:41:05.223Z,89.47
2023-02-22T04:43:32.866Z,89.61
2023-02-22T04:46:00.476Z,89.63
2023-02-22T04:48:28.081Z,89.26
2023-02-22T04:50:55.767Z,89.22
2023-02-22T04:53:23.340Z,89.33
2023-02-22T04:55:50.935Z,89.30
2023-02-22T04:58:18.643Z,89.09
2023-02-22T05:00:46.292Z,89.15
2023-02-22T05:03:14.120Z,89.09
2023-02-22T05:05:41.812Z,89.13
2023-02-22T05:08:09.456Z,89.05
2023-02-22T05:10:37.140Z,89.12
2023-02-22T05:13:04.728Z,89.22
2023-02-22T05:15:32.388Z,89.11
2023-02-22T05:17:59.931Z,89.25
2023-02-22T05:20:33.451Z,89.09
2023-02-22T05:23:02.949Z,89.15
2023-02-22T05:25:30.612Z,89.31
2023-02-22T05:28:08.281Z,89.30
2023-02-22T05:30:37.338Z,89.40
2023-02-22T05:33:05.631Z,89.37
2023-02-22T05:35:33.384Z,89.27
2023-02-22T05:38:00.963Z,89.27
2023-02-22T05:40:29.452Z,89.47
2023-02-22T05:42:57.557Z,89.51
2023-02-22T05:45:27.541Z,89.53
2023-02-22T05:47:55.916Z,89.39
2023-02-22T05:50:24.215Z,89.35
2023-02-22T05:52:52.462Z,89.37
2023-02-22T05:55:22.929Z,89.36
2023-02-22T05:57:51.646Z,89.39
2023-02-22T06:00:27.965Z,89.27
2023-02-22T06:02:56.633Z,89.28
2023-02-22T06:05:25.173Z,89.24
2023-02-22T06:07:53.004Z,89.32
2023-02-22T06:10:21.291Z,89.11
2023-02-22T06:12:49.830Z,89.07
2023-02-22T06:15:19.070Z,89.25
2023-02-22T06:17:47.428Z,89.25
2023-02-22T06:20:17.740Z,89.35
2023-02-22T06:22:47.205Z,89.27
2023-02-22T06:25:17.381Z,88.98
2023-02-22T06:27:45.003Z,88.97
2023-02-22T06:30:14.177Z,88.94
2023-02-22T06:32:41.760Z,88.97
2023-02-22T06:35:09.438Z,89.03
2023-02-22T06:37:37.210Z,89.01
2023-02-22T06:40:05.871Z,88.93
2023-02-22T06:42:33.933Z,88.85
2023-02-22T06:45:01.553Z,88.69
2023-02-22T06:47:29.140Z,88.77
2023-02-22T06:49:58.547Z,88.75
2023-02-22T06:52:26.650Z,88.59
2023-02-22T06:54:54.302Z,88.58
2023-02-22T06:57:21.870Z,88.50
2023-02-22T06:59:49.450Z,88.29
2023-02-22T07:02:17.034Z,88.32
2023-02-22T07:04:45.425Z,88.21
2023-02-22T07:07:14.053Z,88.26
2023-02-22T07:09:41.636Z,88.09
2023-02-22T07:12:09.253Z,87.97
2023-02-22T07:14:36.956Z,87.50
2023-02-22T07:17:04.544Z,87.50
2023-02-22T07:19:32.125Z,87.37
2023-02-22T07:21:59.698Z,87.24
2023-02-22T07:24:27.645Z,87.25
2023-02-22T07:26:55.625Z,87.19
2023-02-22T07:29:23.238Z,87.01
2023-02-22T07:31:51.143Z,86.71
2023-02-22T07:34:18.751Z,86.54
2023-02-22T07:36:46.306Z,86.37
2023-02-22T07:39:13.888Z,86.24
2023-02-22T07:41:41.468Z,85.94
2023-02-22T07:44:09.023Z,85.76
2023-02-22T07:46:36.744Z,85.77
2023-02-22T07:49:05.273Z,85.92
2023-02-22T07:51:32.870Z,85.38
2023-02-22T07:54:00.439Z,85.22
2023-02-22T07:56:28.024Z,84.90
2023-02-22T07:58:55.670Z,84.50
2023-02-22T08:01:23.436Z,84.37
2023-02-22T08:03:51.055Z,84.44
2023-02-22T08:06:18.839Z,84.23
2023-02-22T08:08:46.882Z,83.70
2023-02-22T08:11:14.837Z,83.60
2023-02-22T08:13:45.134Z,83.60
2023-02-22T08:16:12.668Z,83.59
2023-02-22T08:18:40.302Z,83.10
2023-02-22T08:21:07.974Z,82.69
2023-02-22T08:23:35.566Z,82.65
2023-02-22T08:26:11.627Z,82.51
2023-02-22T08:28:39.255Z,81.88
2023-02-22T08:31:06.819Z,81.10
2023-02-22T08:33:34.609Z,80.60
2023-02-22T08:36:02.267Z,80.83
2023-02-22T08:38:31.432Z,80.26
2023-02-22T08:40:59.050Z,80.00
2023-02-22T08:43:26.991Z,79.26
2023-02-22T08:45:57.285Z,78.63
2023-02-22T08:48:25.588Z,78.60
2023-02-22T08:50:53.206Z,77.94
2023-02-22T08:53:20.819Z,77.37
2023-02-22T08:55:48.552Z,77.32
2023-02-22T08:58:16.514Z,77.49
2023-02-22T09:00:44.079Z,77.54
2023-02-22T09:03:14.457Z,76.89
2023-02-22T09:05:43.464Z,76.65
2023-02-22T09:08:11.208Z,76.09
2023-02-22T09:10:39.039Z,75.11
2023-02-22T09:13:06.657Z,75.36
2023-02-22T09:15:34.773Z,74.22
2023-02-22T09:18:02.997Z,73.50
2023-02-22T09:20:30.677Z,73.32
2023-02-22T09:22:58.280Z,72.45
2023-02-22T09:25:26.537Z,71.81
2023-02-22T09:27:55.008Z,71.41
2023-02-22T09:30:34.389Z,71.26
2023-02-22T09:33:13.692Z,70.05
2023-02-22T09:35:43.398Z,69.75
2023-02-22T09:38:11.096Z,70.12
2023-02-22T09:40:43.957Z,70.38
2023-02-22T09:43:39.058Z,68.59
2023-02-22T09:46:34.321Z,68.58
2023-02-22T09:49:16.407Z,68.80
2023-02-22T09:52:02.674Z,69.32
2023-02-22T09:54:50.348Z,68.90
2023-02-22T09:57:32.556Z,67.52
2023-02-22T10:00:12.876Z,68.06
2023-02-22T10:02:58.075Z,66.75
2023-02-22T10:05:34.062Z,67.74
2023-02-22T10:08:04.795Z,67.86
2023-02-22T10:10:36.527Z,66.54
2023-02-22T10:13:29.322Z,66.91
2023-02-22T10:16:10.792Z,67.74
2023-02-22T10:18:49.339Z,66.64
2023-02-22T10:21:21.980Z,67.03
2023-02-22T10:24:09.912Z,67.24
2023-02-22T10:26:43.387Z,66.16
2023-02-22T10:29:27.484Z,65.94
2023-02-22T10:31:59.874Z,65.35
2023-02-22T10:34:39.408Z,64.58
2023-02-22T10:37:23.837Z,63.18
2023-02-22T10:39:58.950Z,63.22
2023-02-22T10:42:27.744Z,65.16
2023-02-22T10:44:55.344Z,65.26
2023-02-22T10:47:24.268Z,63.99
2023-02-22T10:49:57.237Z,61.82
2023-02-22T10:52:32.809Z,60.76
2023-02-22T10:55:14.703Z,61.16
2023-02-22T10:57:49.009Z,61.01
2023-02-22T11:00:35.871Z,60.91
2023-02-22T11:03:19.118Z,60.69
2023-02-22T11:05:47.573Z,62.74
2023-02-22T11:08:20.811Z,61.69
2023-02-22T11:10:49.931Z,62.12
2023-02-22T11:13:23.559Z,63.10
2023-02-22T11:15:52.094Z,63.12
2023-02-22T11:18:26.656Z,63.95
2023-02-22T11:21:08.927Z,62.09
2023-02-22T11:23:37.770Z,62.67
2023-02-22T11:26:08.682Z,62.46
2023-02-22T11:28:37.374Z,61.55
2023-02-22T11:31:15.977Z,61.83
2023-02-22T11:33:52.669Z,61.93
2023-02-22T11:36:36.156Z,62.11
2023-02-22T11:39:07.143Z,61.48
2023-02-22T11:41:34.736Z,61.32
2023-02-22T11:44:27.088Z,61.56
2023-02-22T11:46:57.682Z,60.84
2023-02-22T11:49:36.785Z,61.96
2023-02-22T11:52:23.081Z,61.63
2023-02-22T11:55:41.494Z,61.27
2023-02-22T11:58:21.824Z,59.92
2023-02-22T12:00:52.125Z,59.27
2023-02-22T12:03:34.666Z,59.94
2023-02-22T12:06:40.013Z,60.17
2023-02-22T12:09:22.403Z,60.32
2023-02-22T12:11:52.858Z,60.48
2023-02-22T12:14:20.367Z,59.29
2023-02-22T12:16:54.159Z,58.30
2023-02-22T12:19:27.482Z,59.38
2023-02-22T12:22:07.679Z,57.46
2023-02-22T12:25:08.538Z,57.09
2023-02-22T12:27:47.630Z,57.55
2023-02-22T12:30:23.988Z,59.35
2023-02-22T12:32:59.416Z,57.99
2023-02-22T12:35:40.186Z,58.88
2023-02-22T12:38:28.492Z,59.19
2023-02-22T12:41:10.720Z,59.86
2023-02-22T12:43:38.381Z,59.75
2023-02-22T12:46:32.723Z,59.51
2023-02-22T12:49:09.018Z,58.76
2023-02-22T12:51:58.319Z,59.25
2023-02-22T12:54:44.220Z,59.71
2023-02-22T12:57:17.164Z,60.01
2023-02-22T12:59:52.901Z,60.12
2023-02-22T13:02:20.651Z,58.22
2023-02-22T13:04:48.908Z,59.35
2023-02-22T13:07:41.411Z,59.78
2023-02-22T13:10:33.495Z,58.49
2023-02-22T13:13:25.747Z,59.14
2023-02-22T13:16:39.978Z,59.27
2023-02-22T13:19:29.083Z,59.42
2023-02-22T13:22:04.296Z,59.48
2023-02-22T13:24:42.717Z,60.39
2023-02-22T13:27:35.344Z,61.36
2023-02-22T13:30:04.236Z,62.08
2023-02-22T13:33:13.317Z,61.77
2023-02-22T13:35:55.962Z,62.74
2023-02-22T13:38:23.435Z,64.16
2023-02-22T13:41:06.569Z,64.72
2023-02-22T13:43:40.477Z,64.69
2023-02-22T13:46:29.994Z,64.08
2023-02-22T13:49:25.839Z,61.72
2023-02-22T13:52:28.008Z,61.35
2023-02-22T13:55:00.476Z,63.15
2023-02-22T13:57:36.658Z,62.72
2023-02-22T14:00:16.942Z,63.24
2023-02-22T14:03:05.434Z,63.09
2023-02-22T14:05:54.561Z,63.42
2023-02-22T14:08:22.044Z,63.79
2023-02-22T14:10:52.915Z,64.06
2023-02-22T14:13:22.646Z,63.87
2023-02-22T14:15:59.630Z,63.52
2023-02-22T14:18:47.917Z,62.20
2023-02-22T14:21:18.603Z,61.70
2023-02-22T14:23:51.247Z,61.57
2023-02-22T14:26:26.707Z,62.69
2023-02-22T14:29:09.483Z,61.82
2023-02-22T14:31:43.409Z,61.12
2023-02-22T14:34:16.729Z,60.87
2023-02-22T14:36:51.620Z,61.95
2023-02-22T14:39:39.784Z,62.10
2023-02-22T14:42:13.966Z,61.76
2023-02-22T14:44:48.411Z,62.66
2023-02-22T14:47:24.568Z,62.36
2023-02-22T14:49:53.333Z,61.14
2023-02-22T14:52:28.850Z,60.66
2023-02-22T14:55:22.403Z,61.18
2023-02-22T14:57:58.923Z,61.68
2023-02-22T15:00:38.228Z,62.21
2023-02-22T15:03:06.059Z,62.90
2023-02-22T15:05:38.161Z,63.17
2023-02-22T15:08:08.678Z,62.93
2023-02-22T15:10:41.101Z,62.48
2023-02-22T15:13:26.898Z,63.10
2023-02-22T15:16:00.603Z,63.01
2023-02-22T15:18:42.050Z,63.83
2023-02-22T15:21:14.763Z,63.88
2023-02-22T15:23:51.275Z,64.58
2023-02-22T15:26:25.361Z,64.64
2023-02-22T15:28:57.409Z,64.92
2023-02-22T15:31:35.980Z,64.89
2023-02-22T15:34:11.442Z,65.27
2023-02-22T15:36:39.306Z,65.83
2023-02-22T15:39:18.387Z,65.86
2023-02-22T15:41:46.272Z,65.96
2023-02-22T15:44:23.252Z,65.81
2023-02-22T15:46:51.838Z,66.27
2023-02-22T15:49:21.375Z,66.28
2023-02-22T15:52:02.613Z,66.35
2023-02-22T15:54:37.497Z,66.83
2023-02-22T15:57:05.492Z,66.86
2023-02-22T15:59:41.791Z,67.35
2023-02-22T16:02:25.676Z,67.11
2023-02-22T16:04:59.950Z,67.47
2023-02-22T16:07:28.284Z,67.44
2023-02-22T16:09:56.644Z,67.59
2023-02-22T16:12:27.366Z,67.35
2023-02-22T16:14:56.301Z,67.34
2023-02-22T16:17:29.829Z,67.40
2023-02-22T16:20:01.889Z,67.59
2023-02-22T16:22:29.575Z,67.99
2023-02-22T16:25:17.886Z,68.32
2023-02-22T16:27:46.547Z,68.75
2023-02-22T16:30:30.721Z,68.43
2023-02-22T16:32:59.659Z,68.22
2023-02-22T16:35:29.162Z,68.15
2023-02-22T16:38:04.719Z,68.38
2023-02-22T16:40:35.155Z,68.33
2023-02-22T16:43:06.156Z,68.97
2023-02-22T16:45:34.271Z,68.61
2023-02-22T16:48:11.815Z,69.28
2023-02-22T16:50:39.515Z,69.85
2023-02-22T16:53:07.173Z,70.02
2023-02-22T16:55:35.014Z,70.28
2023-02-22T16:58:04.129Z,70.59
2023-02-22T17:00:31.915Z,70.80
2023-02-22T17:03:01.959Z,70.99
2023-02-22T17:05:30.697Z,71.43
2023-02-22T17:07:58.360Z,71.82
2023-02-22T17:10:25.955Z,72.00
2023-02-22T17:12:53.611Z,71.90
2023-02-22T17:15:24.673Z,72.11
2023-02-22T17:17:53.542Z,72.41
2023-02-22T17:20:22.255Z,72.63
2023-02-22T17:22:49.845Z,72.85
2023-02-22T17:25:24.788Z,72.94
2023-02-22T17:27:52.399Z,73.17
2023-02-22T17:30:21.413Z,73.51
2023-02-22T17:32:51.729Z,73.90
2023-02-22T17:35:20.703Z,74.10
2023-02-22T17:37:49.083Z,74.24
2023-02-22T17:40:16.887Z,74.63
2023-02-22T17:42:45.268Z,75.10
2023-02-22T17:45:13.966Z,75.55
2023-02-22T17:47:43.188Z,75.59
2023-02-22T17:50:12.631Z,75.74
2023-02-22T17:52:40.253Z,76.22
2023-02-22T17:55:08.905Z,76.48
2023-02-22T17:57:36.755Z,76.52
2023-02-22T18:00:06.940Z,76.80
2023-02-22T18:02:34.621Z,77.02
2023-02-22T18:05:02.368Z,77.48
2023-02-22T18:07:29.984Z,78.00
2023-02-22T18:09:57.579Z,78.24
2023-02-22T18:12:25.253Z,78.41
2023-02-22T18:14:53.048Z,78.54
2023-02-22T18:17:20.630Z,78.74
2023-02-22T18:19:48.722Z,78.76
2023-02-22T18:22:16.388Z,78.94
2023-02-22T18:24:44.034Z,79.73
2023-02-22T18:27:11.747Z,79.82
2023-02-22T18:29:39.328Z,79.85
2023-02-22T18:32:07.354Z,80.43
2023-02-22T18:34:35.032Z,80.75
2023-02-22T18:37:02.819Z,80.90
2023-02-22T18:39:30.393Z,80.98
2023-02-22T18:41:57.987Z,81.36
2023-02-22T18:44:25.662Z,81.90
2023-02-22T18:46:53.610Z,82.12
2023-02-22T18:49:21.331Z,82.27
2023-02-22T18:51:48.982Z,81.95
2023-02-22T18:54:16.599Z,81.71
2023-02-22T18:56:44.473Z,81.63
2023-02-22T18:59:12.496Z,81.81
2023-02-22T19:01:40.638Z,81.98
2023-02-22T19:04:09.601Z,82.16
2023-02-22T19:06:38.190Z,82.09
2023-02-22T19:09:06.458Z,82.06
2023-02-22T19:11:35.407Z,82.11
2023-02-22T19:14:03.394Z,82.27
2023-02-22T19:16:31.221Z,82.58
2023-02-22T19:18:59.030Z,82.67
2023-02-22T19:21:30.020Z,82.71
2023-02-22T19:23:58.307Z,82.50
2023-02-22T19:26:27.197Z,82.47
2023-02-22T19:28:56.586Z,82.40
2023-02-22T19:31:29.118Z,82.59
2023-02-22T19:34:06.345Z,82.53
2023-02-22T19:36:34.179Z,82.54
2023-02-22T19:39:02.030Z,82.38
2023-02-22T19:41:30.856Z,82.52
2023-02-22T19:43:59.165Z,82.51
2023-02-22T19:46:27.893Z,82.82
2023-02-22T19:48:56.980Z,83.03
2023-02-22T19:51:27.588Z,82.86
2023-02-22T19:54:00.488Z,82.95
2023-02-22T19:56:29.501Z,82.92
2023-02-22T19:59:00.119Z,82.99
2023-02-22T20:01:32.613Z,83.19
2023-02-22T20:04:09.377Z,83.13
2023-02-22T20:06:40.451Z,83.12
2023-02-22T20:09:12.370Z,83.17
2023-02-22T20:11:41.071Z,82.89
2023-02-22T20:14:08.825Z,82.80
2023-02-22T20:16:36.747Z,82.92
2023-02-22T20:19:04.606Z,82.89
2023-02-22T20:21:34.137Z,82.91
2023-02-22T20:24:07.725Z,83.04
2023-02-22T20:26:37.568Z,82.96
2023-02-22T20:29:07.752Z,82.85
2023-02-22T20:31:36.475Z,82.77
2023-02-22T20:34:04.461Z,82.87
2023-02-22T20:36:33.398Z,82.94
2023-02-22T20:39:01.102Z,83.22
2023-02-22T20:41:32.271Z,83.09
2023-02-22T20:44:01.369Z,83.20
2023-02-22T20:46:31.198Z,83.32
2023-02-22T20:49:01.171Z,83.65
2023-02-22T20:51:29.517Z,83.81
2023-02-22T20:53:58.542Z,84.00
2023-02-22T20:56:27.736Z,83.89
2023-02-22T20:58:57.172Z,83.99
2023-02-22T21:01:24.933Z,84.13
2023-02-22T21:03:52.888Z,84.15
2023-02-22T21:06:22.834Z,84.26
2023-02-22T21:08:54.289Z,84.37
2023-02-22T21:11:24.225Z,84.19
2023-02-22T21:13:52.686Z,84.11
2023-02-22T21:16:26.663Z,84.29
2023-02-22T21:18:56.865Z,84.36
2023-02-22T21:21:25.797Z,84.25
2023-02-22T21:23:55.685Z,84.24
2023-02-22T21:26:26.336Z,84.26
2023-02-22T21:28:55.326Z,84.41
2023-02-22T21:31:24.965Z,84.54
2023-02-22T21:33:54.876Z,84.66
2023-02-22T21:36:23.238Z,84.70
2023-02-22T21:38:54.104Z,84.77
2023-02-22T21:41:24.097Z,84.78
2023-02-22T21:43:52.120Z,84.94
2023-02-22T21:46:20.443Z,84.87
2023-02-22T21:48:48.754Z,84.98
2023-02-22T21:51:23.136Z,85.16
2023-02-22T21:53:53.901Z,85.16
2023-02-22T21:56:24.288Z,85.32
2023-02-22T21:59:02.077Z,85.15
2023-02-22T22:01:35.828Z,85.26
2023-02-22T22:04:04.848Z,85.41
2023-02-22T22:06:33.594Z,85.64
2023-02-22T22:09:01.305Z,85.79
2023-02-22T22:11:28.856Z,86.12
2023-02-22T22:13:56.544Z,86.35
2023-02-22T22:16:24.542Z,86.56
2023-02-22T22:18:52.111Z,86.72
2023-02-22T22:21:21.961Z,86.82
2023-02-22T22:23:51.249Z,86.74
2023-02-22T22:26:19.182Z,87.06
2023-02-22T22:28:49.576Z,87.01
2023-02-22T22:31:18.385Z,87.32
2023-02-22T22:33:46.904Z,87.23
2023-02-22T22:36:17.226Z,87.34
2023-02-22T22:38:44.984Z,87.37
2023-02-22T22:41:13.612Z,87.53
2023-02-22T22:43:42.706Z,87.27
2023-02-22T22:46:10.422Z,87.28
2023-02-22T22:48:38.308Z,87.39
2023-02-22T22:51:08.214Z,87.70
2023-02-22T22:53:38.454Z,87.70
2023-02-22T22:56:08.745Z,87.94
2023-02-22T22:58:36.518Z,88.18
2023-02-22T23:01:04.240Z,88.34
2023-02-22T23:03:33.346Z,88.39
2023-02-22T23:06:02.201Z,88.43
2023-02-22T23:08:32.920Z,88.13
2023-02-22T23:11:06.799Z,88.22
2023-02-22T23:13:34.625Z,88.36
2023-02-22T23:16:02.503Z,88.37
2023-02-22T23:18:30.110Z,88.14
2023-02-22T23:20:59.804Z,88.25
2023-02-22T23:23:27.362Z,88.27
2023-02-22T23:26:13.441Z,88.34
2023-02-22T23:28:41.957Z,88.26
2023-02-22T23:31:11.989Z,88.25
2023-02-22T23:33:40.759Z,88.25
2023-02-22T23:36:08.990Z,88.36
2023-02-22T23:38:36.686Z,88.39
2023-02-22T23:41:05.628Z,88.24
2023-02-22T23:43:33.182Z,88.43
2023-02-22T23:46:02.660Z,88.79
2023-02-22T23:48:30.260Z,89.03
2023-02-22T23:50:57.817Z,88.91
2023-02-22T23:53:26.077Z,88.98
2023-02-22T23:55:53.658Z,88.92
2023-02-22T23:58:21.250Z,88.85
